Time;durP1;ratioP1;P1;durP2;ratioP2;P2;SDS_P1;SDS_P2;PMS_P1;PMS_P2;Temp;Humidity;BMP_temperature;BMP_pressure;BME280_temperature;BME280_humidity;BME280_pressure;Samples;Min_cycle;Max_cycle;Signal;HPM_P1;HPM_P2
2021/09/21 00:02:18;;;;;;;10.23;6.25;;;;;;;;;;6199924;22;20168;-92
2021/09/21 00:05:26;;;;;;;11.65;6.15;;;;;;;;;;6200369;22;20213;-92
2021/09/21 00:08:31;;;;;;;11.40;6.60;;;;;;;;;;6199225;22;20215;-92
2021/09/21 00:11:38;;;;;;;10.77;5.78;;;;;;;;;;6202309;22;20156;-94
2021/09/21 00:14:43;;;;;;;13.63;5.63;;;;;;;;;;6204067;22;20191;-92
2021/09/21 00:17:50;;;;;;;9.57;6.28;;;;;;;;;;6201195;22;20167;-93
2021/09/21 00:20:56;;;;;;;12.70;6.38;;;;;;;;;;6203273;22;20152;-92
2021/09/21 00:24:01;;;;;;;9.00;5.45;;;;;;;;;;6203073;22;20291;-92
2021/09/21 00:27:08;;;;;;;8.82;5.80;;;;;;;;;;6203035;22;20160;-91
2021/09/21 00:30:15;;;;;;;9.15;5.38;;;;;;;;;;6203911;22;20233;-93
2021/09/21 00:33:23;;;;;;;9.52;6.10;;;;;;;;;;6204317;22;20168;-92
2021/09/21 00:36:30;;;;;;;13.05;5.93;;;;;;;;;;6205814;22;20167;-94
2021/09/21 00:39:37;;;;;;;9.07;5.60;;;;;;;;;;6206315;22;20227;-92
2021/09/21 00:42:45;;;;;;;12.93;5.95;;;;;;;;;;6206148;23;20627;-91
2021/09/21 00:45:52;;;;;;;8.55;5.65;;;;;;;;;;6206304;22;20172;-93
2021/09/21 00:48:59;;;;;;;12.52;6.60;;;;;;;;;;6203332;22;20175;-90
2021/09/21 00:52:04;;;;;;;12.90;5.75;;;;;;;;;;6204305;22;20171;-92
2021/09/21 00:55:11;;;;;;;11.98;6.28;;;;;;;;;;6203080;22;20654;-91
2021/09/21 00:58:18;;;;;;;11.40;5.93;;;;;;;;;;6204098;22;20212;-92
2021/09/21 01:01:24;;;;;;;9.27;5.75;;;;;;;;;;6202317;22;20168;-92
2021/09/21 01:04:29;;;;;;;10.48;5.63;;;;;;;;;;6202823;23;20220;-90
2021/09/21 01:07:37;;;;;;;11.65;5.82;;;;;;;;;;6202193;22;20173;-93
2021/09/21 01:10:43;;;;;;;12.50;5.82;;;;;;;;;;6203710;22;20176;-92
2021/09/21 01:13:50;;;;;;;10.23;6.10;;;;;;;;;;6202618;22;20254;-91
2021/09/21 01:16:57;;;;;;;10.52;5.78;;;;;;;;;;6202957;22;20168;-90
2021/09/21 01:20:03;;;;;;;9.48;5.82;;;;;;;;;;6203803;22;20151;-91
2021/09/21 01:23:09;;;;;;;16.45;5.97;;;;;;;;;;6203406;22;20164;-92
2021/09/21 01:26:14;;;;;;;13.55;6.18;;;;;;;;;;6202899;22;20247;-93
2021/09/21 01:29:19;;;;;;;11.13;6.25;;;;;;;;;;6200091;22;20235;-92
2021/09/21 01:32:24;;;;;;;8.82;5.65;;;;;;;;;;6200999;22;20151;-91
2021/09/21 01:35:30;;;;;;;11.32;5.35;;;;;;;;;;6201067;22;20195;-92
2021/09/21 01:38:37;;;;;;;9.13;5.15;;;;;;;;;;6200473;22;20167;-92
2021/09/21 01:41:43;;;;;;;8.10;5.20;;;;;;;;;;6202137;23;20176;-92
2021/09/21 01:44:49;;;;;;;11.85;5.43;;;;;;;;;;6202156;22;20184;-93
2021/09/21 01:47:55;;;;;;;10.52;5.85;;;;;;;;;;6201622;22;20176;-91
2021/09/21 01:51:03;;;;;;;9.90;5.63;;;;;;;;;;6201076;23;20256;-91
2021/09/21 01:54:16;;;;;;;12.85;5.72;;;;;;;;;;6201063;22;20192;-94
2021/09/21 02:00:45;;;;;;;9.73;5.78;;;;;;;;;;6201517;22;20192;-93
2021/09/21 02:03:51;;;;;;;10.32;5.65;;;;;;;;;;6201701;22;20236;-92
2021/09/21 02:06:58;;;;;;;8.82;5.70;;;;;;;;;;6199563;22;20319;-92
2021/09/21 02:10:05;;;;;;;12.13;6.38;;;;;;;;;;6200417;22;20172;-94
2021/09/21 02:13:10;;;;;;;12.82;6.45;;;;;;;;;;6201011;23;20171;-92
2021/09/21 02:16:15;;;;;;;10.57;6.18;;;;;;;;;;6200383;22;20196;-90
2021/09/21 02:19:21;;;;;;;11.63;6.50;;;;;;;;;;6201829;23;20168;-90
2021/09/21 02:22:26;;;;;;;9.43;5.80;;;;;;;;;;6202084;23;20175;-93
2021/09/21 02:25:32;;;;;;;12.45;5.95;;;;;;;;;;6200790;22;20171;-92
2021/09/21 02:28:38;;;;;;;9.77;6.13;;;;;;;;;;6201559;22;20207;-92
2021/09/21 02:31:43;;;;;;;10.40;6.30;;;;;;;;;;6201963;22;20188;-90
2021/09/21 02:34:48;;;;;;;9.43;6.25;;;;;;;;;;6201362;22;20215;-90
2021/09/21 02:37:53;;;;;;;11.13;6.32;;;;;;;;;;6202978;22;20173;-93
2021/09/21 02:41:00;;;;;;;9.75;6.22;;;;;;;;;;6202093;22;20171;-92
2021/09/21 02:44:06;;;;;;;11.85;6.28;;;;;;;;;;6203348;22;20163;-92
2021/09/21 02:47:11;;;;;;;9.50;6.07;;;;;;;;;;6204146;23;20196;-93
2021/09/21 02:50:16;;;;;;;11.68;6.80;;;;;;;;;;6202301;22;20203;-93
2021/09/21 02:53:22;;;;;;;11.75;6.85;;;;;;;;;;6199959;22;20171;-92
2021/09/21 02:56:29;;;;;;;9.90;6.43;;;;;;;;;;6199835;23;20239;-92
2021/09/21 02:59:34;;;;;;;14.25;6.93;;;;;;;;;;6201127;22;20187;-92
2021/09/21 03:02:42;;;;;;;15.10;6.78;;;;;;;;;;6203116;22;20168;-93
2021/09/21 03:05:55;;;;;;;12.70;6.97;;;;;;;;;;6202787;22;20195;-91
2021/09/21 03:09:09;;;;;;;13.18;7.10;;;;;;;;;;6201770;22;20151;-92
2021/09/21 03:12:22;;;;;;;16.27;6.35;;;;;;;;;;6202084;22;20172;-92
2021/09/21 03:18:51;;;;;;;12.85;6.30;;;;;;;;;;6201918;22;20192;-92
2021/09/21 03:21:57;;;;;;;10.23;5.72;;;;;;;;;;6201855;22;20163;-91
2021/09/21 03:25:02;;;;;;;13.95;7.03;;;;;;;;;;6200509;23;20211;-91
2021/09/21 03:28:09;;;;;;;13.95;5.93;;;;;;;;;;6201455;22;20155;-93
2021/09/21 03:31:14;;;;;;;12.20;5.63;;;;;;;;;;6201347;22;20171;-93
2021/09/21 03:34:19;;;;;;;11.98;5.78;;;;;;;;;;6201506;22;20211;-92
2021/09/21 03:37:24;;;;;;;12.55;6.15;;;;;;;;;;6201478;22;20163;-91
2021/09/21 03:40:31;;;;;;;9.20;5.95;;;;;;;;;;6201622;22;20168;-92
2021/09/21 03:43:39;;;;;;;9.45;5.57;;;;;;;;;;6202341;22;20152;-92
2021/09/21 03:46:46;;;;;;;9.00;5.90;;;;;;;;;;6203877;22;20172;-91
2021/09/21 03:49:51;;;;;;;10.48;5.60;;;;;;;;;;6202945;22;20195;-91
2021/09/21 03:52:56;;;;;;;9.43;5.93;;;;;;;;;;6202930;22;20164;-93
2021/09/21 03:56:02;;;;;;;10.38;6.50;;;;;;;;;;6202089;22;20215;-91
2021/09/21 03:59:09;;;;;;;15.00;6.50;;;;;;;;;;6202264;22;20171;-93
2021/09/21 04:06:34;;;;;;;9.15;5.53;;;;;;;;;;6202953;22;20144;-91
2021/09/21 04:09:39;;;;;;;8.13;5.50;;;;;;;;;;6204397;22;20180;-92
2021/09/21 04:12:45;;;;;;;8.10;5.22;;;;;;;;;;6202583;22;20214;-91
2021/09/21 04:15:56;;;;;;;8.98;5.97;;;;;;;;;;6204245;22;20184;-92
2021/09/21 04:19:02;;;;;;;9.73;5.25;;;;;;;;;;6203143;22;20163;-92
2021/09/21 04:22:07;;;;;;;9.35;5.80;;;;;;;;;;6203953;22;20152;-93
2021/09/21 04:25:13;;;;;;;10.05;6.15;;;;;;;;;;6204644;22;20151;-92
2021/09/21 04:28:20;;;;;;;9.50;6.20;;;;;;;;;;6203461;22;20615;-91
2021/09/21 04:31:27;;;;;;;10.80;6.13;;;;;;;;;;6204665;22;20172;-91
2021/09/21 04:34:33;;;;;;;11.82;5.93;;;;;;;;;;6203992;22;20172;-92
2021/09/21 04:37:39;;;;;;;10.43;5.93;;;;;;;;;;6204220;22;20148;-91
2021/09/21 04:40:45;;;;;;;8.65;5.40;;;;;;;;;;6204566;22;20160;-93
2021/09/21 04:43:50;;;;;;;10.55;5.97;;;;;;;;;;6203465;22;20171;-92
2021/09/21 04:46:58;;;;;;;12.45;6.88;;;;;;;;;;6207292;22;20162;-91
2021/09/21 04:50:05;;;;;;;11.63;5.72;;;;;;;;;;6205510;22;20191;-92
2021/09/21 04:53:14;;;;;;;11.35;6.38;;;;;;;;;;6206047;22;20167;-91
2021/09/21 04:56:19;;;;;;;13.05;5.70;;;;;;;;;;6204051;23;20191;-92
2021/09/21 04:59:26;;;;;;;13.20;6.07;;;;;;;;;;6204229;23;20163;-91
2021/09/21 05:02:33;;;;;;;10.30;6.15;;;;;;;;;;6204255;22;20494;-92
2021/09/21 05:05:38;;;;;;;9.80;6.30;;;;;;;;;;6203762;22;20171;-92
2021/09/21 05:08:46;;;;;;;9.60;6.18;;;;;;;;;;6205320;22;20168;-90
2021/09/21 05:11:54;;;;;;;11.45;6.15;;;;;;;;;;6206474;22;20160;-91
2021/09/21 05:15:00;;;;;;;11.20;6.45;;;;;;;;;;6205131;22;20188;-91
2021/09/21 05:18:08;;;;;;;12.50;6.95;;;;;;;;;;6205567;22;20172;-92
2021/09/21 05:21:13;;;;;;;14.45;7.00;;;;;;;;;;6204367;22;20164;-90
2021/09/21 05:24:19;;;;;;;10.75;6.95;;;;;;;;;;6203817;22;20219;-92
2021/09/21 05:27:24;;;;;;;11.23;6.57;;;;;;;;;;6205599;22;20171;-92
2021/09/21 05:30:30;;;;;;;13.00;7.05;;;;;;;;;;6204184;22;20163;-92
2021/09/21 05:33:36;;;;;;;21.20;7.68;;;;;;;;;;6204312;22;20242;-91
2021/09/21 05:36:41;;;;;;;15.70;7.05;;;;;;;;;;6204329;22;20219;-91
2021/09/21 05:39:47;;;;;;;12.60;6.70;;;;;;;;;;6205657;23;20180;-92
2021/09/21 05:42:52;;;;;;;13.80;6.78;;;;;;;;;;6205982;22;20175;-90
2021/09/21 05:45:58;;;;;;;14.95;8.02;;;;;;;;;;6204820;22;20171;-92
2021/09/21 05:49:05;;;;;;;11.05;6.70;;;;;;;;;;6201870;22;20601;-91
2021/09/21 05:52:11;;;;;;;14.07;7.43;;;;;;;;;;6201512;22;20188;-92
2021/09/21 05:55:19;;;;;;;16.20;7.18;;;;;;;;;;6202641;22;20229;-91
2021/09/21 05:58:25;;;;;;;14.23;6.50;;;;;;;;;;6203049;22;20172;-92
2021/09/21 06:01:30;;;;;;;12.13;6.45;;;;;;;;;;6205143;22;20209;-91
2021/09/21 06:04:39;;;;;;;16.67;7.32;;;;;;;;;;6203968;22;20164;-91
2021/09/21 06:07:48;;;;;;;12.07;6.35;;;;;;;;;;6203142;22;20499;-92
2021/09/21 06:10:53;;;;;;;13.70;6.70;;;;;;;;;;6203392;22;20152;-92
2021/09/21 06:14:01;;;;;;;9.70;6.22;;;;;;;;;;6203481;23;20676;-91
2021/09/21 06:17:06;;;;;;;11.05;6.47;;;;;;;;;;6205248;22;20179;-90
2021/09/21 06:20:15;;;;;;;10.55;6.45;;;;;;;;;;6206404;22;20148;-93
2021/09/21 06:23:22;;;;;;;16.20;7.55;;;;;;;;;;6204796;22;20167;-92
2021/09/21 06:26:28;;;;;;;13.43;6.57;;;;;;;;;;6205698;22;20160;-91
2021/09/21 06:29:34;;;;;;;10.55;6.50;;;;;;;;;;6207658;22;20215;-92
2021/09/21 06:32:39;;;;;;;11.18;6.82;;;;;;;;;;6208458;22;20163;-91
2021/09/21 06:35:47;;;;;;;11.50;6.60;;;;;;;;;;6206832;22;20274;-93
2021/09/21 06:38:55;;;;;;;9.30;6.38;;;;;;;;;;6206877;22;20167;-92
2021/09/21 06:42:03;;;;;;;12.70;7.38;;;;;;;;;;6209028;22;20171;-92
2021/09/21 06:45:11;;;;;;;13.80;6.88;;;;;;;;;;6207961;22;20163;-92
2021/09/21 06:48:16;;;;;;;10.50;6.50;;;;;;;;;;6206847;22;20172;-93
2021/09/21 06:51:24;;;;;;;12.77;6.65;;;;;;;;;;6206842;22;20175;-92
2021/09/21 06:54:30;;;;;;;9.68;6.32;;;;;;;;;;6206016;22;20213;-93
2021/09/21 06:57:36;;;;;;;12.95;7.00;;;;;;;;;;6206086;22;20217;-93
2021/09/21 07:00:43;;;;;;;15.05;7.25;;;;;;;;;;6204869;23;20179;-92
2021/09/21 07:03:49;;;;;;;16.42;7.00;;;;;;;;;;6206181;22;20159;-94
2021/09/21 07:06:56;;;;;;;10.48;6.53;;;;;;;;;;6207705;22;20235;-92
2021/09/21 07:10:06;;;;;;;11.18;6.88;;;;;;;;;;6206231;22;20203;-92
2021/09/21 07:13:15;;;;;;;12.02;7.05;;;;;;;;;;6205614;22;20172;-93
2021/09/21 07:16:21;;;;;;;11.25;6.95;;;;;;;;;;6203965;22;20288;-92
2021/09/21 07:19:30;;;;;;;14.70;8.07;;;;;;;;;;6205990;22;20207;-92
2021/09/21 07:22:40;;;;;;;15.70;7.72;;;;;;;;;;6208926;22;20229;-94
2021/09/21 07:25:46;;;;;;;22.33;7.05;;;;;;;;;;6210758;22;20171;-93
2021/09/21 07:28:51;;;;;;;11.07;7.15;;;;;;;;;;6209224;22;20175;-91
2021/09/21 07:32:08;;;;;;;11.98;6.95;;;;;;;;;;6208349;22;20171;-93
2021/09/21 07:35:13;;;;;;;9.80;6.18;;;;;;;;;;6210338;22;20191;-93
2021/09/21 07:38:22;;;;;;;11.55;6.20;;;;;;;;;;6208408;22;20245;-93
2021/09/21 07:41:28;;;;;;;11.35;6.78;;;;;;;;;;6206983;23;20236;-92
2021/09/21 07:44:34;;;;;;;12.80;6.50;;;;;;;;;;6206141;22;20180;-92
2021/09/21 07:47:40;;;;;;;9.65;5.95;;;;;;;;;;6205447;22;20179;-91
2021/09/21 07:50:46;;;;;;;11.77;6.15;;;;;;;;;;6205624;22;20171;-92
2021/09/21 07:53:53;;;;;;;10.73;6.20;;;;;;;;;;6205874;23;20167;-92
2021/09/21 07:56:59;;;;;;;12.55;5.60;;;;;;;;;;6205543;22;20231;-92
2021/09/21 08:00:05;;;;;;;12.05;5.53;;;;;;;;;;6207510;22;20156;-92
2021/09/21 08:03:17;;;;;;;11.10;5.28;;;;;;;;;;6205033;22;20587;-90
2021/09/21 08:06:22;;;;;;;9.70;4.82;;;;;;;;;;6206184;22;20164;-92
2021/09/21 08:09:33;;;;;;;9.15;4.75;;;;;;;;;;6205803;23;20216;-91
2021/09/21 08:12:47;;;;;;;9.82;5.97;;;;;;;;;;6205647;22;20184;-93
2021/09/21 08:15:53;;;;;;;9.25;5.60;;;;;;;;;;6206959;22;20191;-91
2021/09/21 08:18:58;;;;;;;12.48;5.40;;;;;;;;;;6207284;22;20176;-93
2021/09/21 08:22:05;;;;;;;12.10;5.55;;;;;;;;;;6204774;22;20215;-93
2021/09/21 08:25:14;;;;;;;7.55;4.45;;;;;;;;;;6206479;22;20559;-94
2021/09/21 08:28:20;;;;;;;12.43;5.57;;;;;;;;;;6207374;22;20244;-93
2021/09/21 08:31:26;;;;;;;9.07;5.28;;;;;;;;;;6207283;22;20155;-92
2021/09/21 08:34:31;;;;;;;9.38;5.40;;;;;;;;;;6207174;22;20176;-91
2021/09/21 08:37:37;;;;;;;7.72;5.03;;;;;;;;;;6207359;22;20175;-93
2021/09/21 08:40:44;;;;;;;8.07;5.18;;;;;;;;;;6205918;22;20184;-92
2021/09/21 14:44:38;;;;;;;10.52;6.60;;;;;;;;;;6127715;23;20200;-88
2021/09/21 14:47:45;;;;;;;14.45;6.90;;;;;;;;;;6172251;23;20173;-92
2021/09/21 14:50:50;;;;;;;16.30;6.47;;;;;;;;;;6171405;23;20172;-86
2021/09/21 14:53:56;;;;;;;11.70;6.88;;;;;;;;;;6169113;23;20237;-87
2021/09/21 14:57:06;;;;;;;15.13;6.65;;;;;;;;;;6171115;23;20208;-87
2021/09/21 15:00:13;;;;;;;11.68;6.30;;;;;;;;;;6171703;23;20192;-90
2021/09/21 15:03:22;;;;;;;12.55;6.60;;;;;;;;;;6173863;23;20176;-90
2021/09/21 15:06:28;;;;;;;10.60;6.30;;;;;;;;;;6173546;23;20191;-88
2021/09/21 15:09:34;;;;;;;9.10;5.85;;;;;;;;;;6173077;23;20160;-89
2021/09/21 15:12:39;;;;;;;11.80;6.35;;;;;;;;;;6169951;23;20160;-88
2021/09/21 15:15:46;;;;;;;12.73;7.13;;;;;;;;;;6174601;23;20160;-89
2021/09/21 15:18:53;;;;;;;9.32;6.22;;;;;;;;;;6170631;23;20172;-89
2021/09/21 15:21:58;;;;;;;12.35;7.35;;;;;;;;;;6172260;23;20172;-90
2021/09/21 15:25:03;;;;;;;10.15;6.20;;;;;;;;;;6173531;23;20156;-91
2021/09/21 15:28:12;;;;;;;11.93;6.60;;;;;;;;;;6171418;23;20168;-92
2021/09/21 15:31:17;;;;;;;10.20;6.40;;;;;;;;;;6174632;23;20173;-90
2021/09/21 15:34:24;;;;;;;13.45;6.72;;;;;;;;;;6172146;23;20324;-90
2021/09/21 15:37:30;;;;;;;12.25;6.70;;;;;;;;;;6170213;23;20192;-89
2021/09/21 15:40:36;;;;;;;11.80;6.60;;;;;;;;;;6172321;23;20168;-91
2021/09/21 15:43:41;;;;;;;9.90;6.40;;;;;;;;;;6170983;23;20167;-89
2021/09/21 15:46:47;;;;;;;12.23;7.05;;;;;;;;;;6172255;23;20244;-90
2021/09/21 15:49:54;;;;;;;11.27;7.30;;;;;;;;;;6175025;23;20171;-90
2021/09/21 15:53:00;;;;;;;12.88;7.30;;;;;;;;;;6176465;23;20176;-91
2021/09/21 15:56:05;;;;;;;13.65;6.95;;;;;;;;;;6172888;23;20172;-89
2021/09/21 15:59:11;;;;;;;15.50;7.72;;;;;;;;;;6171598;23;20201;-89
2021/09/21 16:02:17;;;;;;;17.80;7.55;;;;;;;;;;6174694;23;20176;-89
2021/09/21 16:05:24;;;;;;;11.35;7.22;;;;;;;;;;6172727;23;20180;-90
2021/09/21 16:08:29;;;;;;;12.43;6.90;;;;;;;;;;6174068;23;20180;-88
2021/09/21 16:11:34;;;;;;;12.10;7.25;;;;;;;;;;6172948;23;20228;-90
2021/09/21 16:14:39;;;;;;;14.60;6.90;;;;;;;;;;6174590;23;20152;-89
2021/09/21 16:17:45;;;;;;;13.75;7.03;;;;;;;;;;6173748;23;20267;-90
2021/09/21 16:20:53;;;;;;;16.33;7.35;;;;;;;;;;6175201;23;20195;-91
2021/09/21 16:24:03;;;;;;;16.33;7.30;;;;;;;;;;6175529;23;20176;-91
2021/09/21 16:27:09;;;;;;;12.63;6.93;;;;;;;;;;6173759;23;20168;-91
2021/09/21 16:30:15;;;;;;;13.13;7.32;;;;;;;;;;6174322;23;20185;-89
2021/09/21 16:33:21;;;;;;;13.40;7.20;;;;;;;;;;6175667;23;20172;-90
2021/09/21 16:36:31;;;;;;;13.20;7.43;;;;;;;;;;6175064;23;20172;-88
2021/09/21 16:39:38;;;;;;;12.15;6.50;;;;;;;;;;6175062;23;20177;-92
2021/09/21 16:42:45;;;;;;;10.23;6.85;;;;;;;;;;6173595;23;20173;-91
2021/09/21 16:45:51;;;;;;;13.32;7.55;;;;;;;;;;6173436;23;20187;-92
2021/09/21 16:48:57;;;;;;;12.88;7.60;;;;;;;;;;6174185;23;20236;-89
2021/09/21 16:52:05;;;;;;;11.23;6.47;;;;;;;;;;6176643;23;20226;-89
2021/09/21 16:58:40;;;;;;;13.20;6.38;;;;;;;;;;6180551;23;20204;-90
2021/09/21 17:05:10;;;;;;;11.57;7.10;;;;;;;;;;6175649;23;20173;-92
2021/09/21 17:08:17;;;;;;;13.05;7.63;;;;;;;;;;6176900;23;20173;-91
2021/09/21 17:11:23;;;;;;;12.73;6.97;;;;;;;;;;6176349;23;20153;-90
2021/09/21 17:14:29;;;;;;;13.98;7.60;;;;;;;;;;6176949;23;20168;-91
2021/09/21 17:17:37;;;;;;;11.57;7.30;;;;;;;;;;6174877;23;20192;-90
2021/09/21 22:07:18;;;;;;;17.23;8.40;;;;;;;;;;6176228;23;20188;-89
2021/09/21 22:10:25;;;;;;;13.32;8.35;;;;;;;;;;6154312;23;20215;-91
2021/09/21 22:13:30;;;;;;;14.65;8.82;;;;;;;;;;6143060;22;21125;-90
2021/09/21 22:16:35;;;;;;;13.45;8.60;;;;;;;;;;6173207;23;20176;-91
2021/09/21 22:19:42;;;;;;;16.42;8.43;;;;;;;;;;6172371;23;20192;-91
2021/09/21 22:22:49;;;;;;;13.68;8.70;;;;;;;;;;6173977;23;20216;-89
2021/09/21 22:25:55;;;;;;;13.73;8.30;;;;;;;;;;6174229;23;20179;-91
2021/09/21 22:29:00;;;;;;;15.15;8.50;;;;;;;;;;6173215;23;20172;-91
2021/09/21 22:32:05;;;;;;;14.05;8.60;;;;;;;;;;6172182;23;20655;-92
2021/09/21 22:35:11;;;;;;;15.95;9.18;;;;;;;;;;6171564;23;20168;-91
2021/09/21 22:38:18;;;;;;;15.40;8.55;;;;;;;;;;6171857;23;20596;-89
2021/09/21 22:41:23;;;;;;;17.00;8.55;;;;;;;;;;6172085;23;20209;-89
2021/09/21 22:44:28;;;;;;;18.55;8.73;;;;;;;;;;6171926;23;20209;-91
2021/09/21 22:47:34;;;;;;;14.95;8.48;;;;;;;;;;6171404;23;20234;-89
2021/09/21 22:50:40;;;;;;;17.13;9.00;;;;;;;;;;6171413;23;20168;-90
2021/09/21 22:53:48;;;;;;;17.88;9.23;;;;;;;;;;6172039;23;20181;-89
2021/09/21 22:56:53;;;;;;;13.25;8.90;;;;;;;;;;6171575;23;20168;-91
2021/09/21 22:59:58;;;;;;;15.25;8.88;;;;;;;;;;6171634;23;20171;-90
2021/09/21 23:03:06;;;;;;;14.27;9.07;;;;;;;;;;6171754;23;20172;-89
2021/09/21 23:06:11;;;;;;;14.80;9.18;;;;;;;;;;6172254;23;20216;-92
2021/09/21 23:09:18;;;;;;;14.40;9.13;;;;;;;;;;6170806;23;20212;-90
2021/09/21 23:12:23;;;;;;;13.25;8.40;;;;;;;;;;6171473;23;20241;-90
2021/09/21 23:15:29;;;;;;;14.80;8.77;;;;;;;;;;6171629;23;20207;-88
2021/09/21 23:18:35;;;;;;;16.83;9.07;;;;;;;;;;6172480;23;20200;-91
2021/09/21 23:21:41;;;;;;;16.45;9.55;;;;;;;;;;6173492;23;20157;-92
2021/09/21 23:24:48;;;;;;;16.65;9.95;;;;;;;;;;6171435;23;20656;-89
2021/09/21 23:27:54;;;;;;;16.10;9.52;;;;;;;;;;6171859;23;20211;-90
2021/09/21 23:30:59;;;;;;;14.27;9.10;;;;;;;;;;6171606;23;20176;-92
2021/09/21 23:34:04;;;;;;;14.63;9.32;;;;;;;;;;6170952;23;20172;-90
2021/09/21 23:37:09;;;;;;;15.43;9.52;;;;;;;;;;6170895;23;20184;-90
2021/09/21 23:40:17;;;;;;;16.63;9.77;;;;;;;;;;6172449;23;20160;-89
2021/09/21 23:43:22;;;;;;;15.10;9.23;;;;;;;;;;6171419;23;20287;-89
2021/09/21 23:46:27;;;;;;;15.35;8.70;;;;;;;;;;6171741;23;20172;-90
2021/09/21 23:49:34;;;;;;;15.10;9.07;;;;;;;;;;6169993;23;20176;-90
2021/09/21 23:52:39;;;;;;;17.73;9.50;;;;;;;;;;6170642;23;20176;-90
2021/09/21 23:55:46;;;;;;;16.20;9.50;;;;;;;;;;6170513;23;20173;-89
2021/09/21 23:58:52;;;;;;;20.88;10.35;;;;;;;;;;6171641;23;20651;-91
